Corky — WDC3366 — position and weather

sailwx.info

Track history (hours):
 
Tides and Currents Weather Stations Pressure Air Temp Water Temp Dewpoint Dewpoint Depression Visibility Wind Speed Wind Dir Waves Ship Positions

Corky

Owner: Gulf South Marine Transportation, Inc., New Orleans, LA. More information available from US FCC via Universal Licensing System and Coast Guard Vessel Documentation Center.

Last reported at 2015-May-23 21:03 UTC. Time now 2015-May-25 21:36 UTC.
Position N 30°01' W 089°54'.

Length 18 m; draft 3.3 m.

Type: Tow > 200 m length. MMSI: 367006780.

Date/timePositionNaut miles runAvg speedWind from/ knotsBaromVisibWave heightAir tempDewpointWater temp
2015-May-23 21:03N 30°01' W 089°54'6 0.2
2015-May-22 15:15N 30°00' W 090°02'4 0.4
2015-May-22 06:16N 30°00' W 089°57'4 5.9
2015-May-22 05:32N 29°58' W 090°02'1 0.9
2015-May-22 04:29N 29°57' W 090°01'1 0.9
2015-May-22 03:33N 29°57' W 090°01'2 1.7
2015-May-22 02:33N 29°58' W 090°02'0 0.2
2015-May-22 01:32N 29°58' W 090°02'0 0.3
2015-May-22 00:32N 29°58' W 090°01'  
2015-May-18 13:29N 30°01' W 089°53'  
2015-May-16 01:09N 30°01' W 089°54'4 5.4
2015-May-16 00:23N 29°60' W 089°59'3 3.6
2015-May-15 23:33N 29°58' W 090°02'1 0.4
2015-May-15 21:33N 29°57' W 090°02'0 0.0
2015-May-15 20:32N 29°57' W 090°02'0 0.0
2015-May-15 19:33N 29°57' W 090°02'0 0.0
2015-May-15 18:33N 29°57' W 090°02'0 0.0
2015-May-15 17:32N 29°57' W 090°02'0 0.0
2015-May-15 16:32N 29°57' W 090°02'0 0.0
2015-May-15 15:33N 29°57' W 090°02'0 0.0
2015-May-15 14:31N 29°57' W 090°02'0 0.0
2015-May-15 13:24N 29°57' W 090°02'0 0.0
2015-May-15 12:22N 29°57' W 090°02'0 0.0
2015-May-15 11:26N 29°57' W 090°02'0 0.0
2015-May-15 10:21N 29°57' W 090°02'6 0.2
2015-May-14 05:32N 29°55' W 090°08'4 3.3
2015-May-14 04:22N 29°55' W 090°04'0 0.0
2015-May-14 03:33N 29°55' W 090°04'2 1.6
2015-May-14 02:31N 29°57' W 090°03'3 2.8
2015-May-14 01:33N 29°56' W 090°00'2 1.8
2015-May-14 00:30N 29°58' W 090°02'0 0.3
2015-May-13 23:24N 29°58' W 090°01'0 0.0
2015-May-13 22:33N 29°58' W 090°01'0 0.0
2015-May-13 21:33N 29°58' W 090°01'  
Track history (hours):
 
Tides and Currents Weather Stations Pressure Air Temp Water Temp Dewpoint Dewpoint Depression Visibility Wind Speed Wind Dir Waves Ship Positions

Corky

Owner: Gulf South Marine Transportation, Inc., New Orleans, LA. More information available from US FCC via Universal Licensing System and Coast Guard Vessel Documentation Center.

Last reported at 2015-May-23 21:03 UTC. Time now 2015-May-25 21:36 UTC.
Position N 30°01' W 089°54'.

Length 18 m; draft 3.3 m.

Type: Tow > 200 m length. MMSI: 367006780.

Date/timePositionNaut miles runAvg speedWind from/ knotsBaromVisibWave heightAir tempDewpointWater temp
2015-May-23 21:03N 30°01' W 089°54'6 0.2
2015-May-22 15:15N 30°00' W 090°02'4 0.4
2015-May-22 06:16N 30°00' W 089°57'4 5.9
2015-May-22 05:32N 29°58' W 090°02'1 0.9
2015-May-22 04:29N 29°57' W 090°01'1 0.9
2015-May-22 03:33N 29°57' W 090°01'2 1.7
2015-May-22 02:33N 29°58' W 090°02'0 0.2
2015-May-22 01:32N 29°58' W 090°02'0 0.3
2015-May-22 00:32N 29°58' W 090°01'  
2015-May-18 13:29N 30°01' W 089°53'  
2015-May-16 01:09N 30°01' W 089°54'4 5.4
2015-May-16 00:23N 29°60' W 089°59'3 3.6
2015-May-15 23:33N 29°58' W 090°02'1 0.4
2015-May-15 21:33N 29°57' W 090°02'0 0.0
2015-May-15 20:32N 29°57' W 090°02'0 0.0
2015-May-15 19:33N 29°57' W 090°02'0 0.0
2015-May-15 18:33N 29°57' W 090°02'0 0.0
2015-May-15 17:32N 29°57' W 090°02'0 0.0
2015-May-15 16:32N 29°57' W 090°02'0 0.0
2015-May-15 15:33N 29°57' W 090°02'0 0.0
2015-May-15 14:31N 29°57' W 090°02'0 0.0
2015-May-15 13:24N 29°57' W 090°02'0 0.0
2015-May-15 12:22N 29°57' W 090°02'0 0.0
2015-May-15 11:26N 29°57' W 090°02'0 0.0
2015-May-15 10:21N 29°57' W 090°02'6 0.2
2015-May-14 05:32N 29°55' W 090°08'4 3.3
2015-May-14 04:22N 29°55' W 090°04'0 0.0
2015-May-14 03:33N 29°55' W 090°04'2 1.6
2015-May-14 02:31N 29°57' W 090°03'3 2.8
2015-May-14 01:33N 29°56' W 090°00'2 1.8
2015-May-14 00:30N 29°58' W 090°02'0 0.3
2015-May-13 23:24N 29°58' W 090°01'0 0.0
2015-May-13 22:33N 29°58' W 090°01'0 0.0
2015-May-13 21:33N 29°58' W 090°01'  

Dump ship's entire track history